Time;durP1;ratioP1;P1;durP2;ratioP2;P2;SDS_P1;SDS_P2;PMS_P1;PMS_P2;Temp;Humidity;BMP_temperature;BMP_pressure;BME280_temperature;BME280_humidity;BME280_pressure;Samples;Min_cycle;Max_cycle;Signal;HPM_P1;HPM_P2
2021/09/23 00:00:50;;;;;;;7.75;5.53;;;;;;;7.84;80.25;94695.85;1626556;87;21067;-59
2021/09/23 00:03:31;;;;;;;5.17;4.70;;;;;;;7.91;80.28;94701.13;1633856;86;21184;-57
2021/09/23 00:05:50;;;;;;;4.83;4.37;;;;;;;7.95;79.98;94699.68;1625322;88;21543;-59
2021/09/23 00:08:18;;;;;;;6.20;5.60;;;;;;;7.91;79.79;94701.75;1625714;87;21110;-59
2021/09/23 00:10:45;;;;;;;4.80;4.40;;;;;;;7.87;79.71;94702.45;1626619;87;21481;-59
2021/09/23 00:13:13;;;;;;;6.65;5.30;;;;;;;7.85;79.59;94701.50;1632724;86;21094;-59
2021/09/23 00:15:40;;;;;;;6.40;5.67;;;;;;;7.84;79.45;94690.38;1625839;87;21101;-59
2021/09/23 00:18:12;;;;;;;7.50;6.20;;;;;;;7.87;79.61;94696.36;1622680;87;21127;-58
2021/09/23 00:20:43;;;;;;;6.80;5.20;;;;;;;7.89;79.68;94694.56;1628427;87;21117;-58
2021/09/23 00:23:11;;;;;;;11.83;9.83;;;;;;;7.86;79.26;94697.55;1628470;87;21097;-58
2021/09/23 00:25:38;;;;;;;13.50;10.63;;;;;;;7.84;79.49;94695.06;1627397;86;21685;-59
2021/09/23 00:28:06;;;;;;;10.43;7.28;;;;;;;7.85;79.21;94697.39;1624228;87;21085;-58
2021/09/23 00:30:36;;;;;;;6.50;5.72;;;;;;;7.89;79.28;94701.41;1628090;86;21494;-58
2021/09/23 00:33:03;;;;;;;6.17;4.80;;;;;;;7.95;79.06;94699.68;1624956;87;21023;-58
2021/09/23 00:35:30;;;;;;;5.85;5.28;;;;;;;7.98;78.77;94696.08;1626885;86;21097;-59
2021/09/23 00:37:58;;;;;;;15.13;10.53;;;;;;;7.92;78.70;94694.45;1625305;87;21111;-58
2021/09/23 00:40:25;;;;;;;7.08;6.28;;;;;;;7.85;78.69;94696.02;1621610;88;21161;-58
2021/09/23 00:42:52;;;;;;;7.92;6.40;;;;;;;7.82;78.83;94700.99;1626216;87;21059;-59
2021/09/23 00:45:21;;;;;;;6.33;5.00;;;;;;;7.81;79.07;94702.19;1628065;87;21201;-58
2021/09/23 00:47:49;;;;;;;15.75;10.45;;;;;;;7.78;79.02;94698.16;1628054;87;21067;-58
2021/09/23 00:50:20;;;;;;;6.58;5.55;;;;;;;7.74;79.23;94700.98;1609383;87;20963;-59
2021/09/23 00:52:47;;;;;;;7.72;6.00;;;;;;;7.72;79.06;94700.65;1593224;88;21448;-58
2021/09/23 00:55:18;;;;;;;4.70;4.30;;;;;;;7.68;79.09;94695.87;1595513;88;21523;-58
2021/09/23 00:57:46;;;;;;;5.40;4.90;;;;;;;7.66;78.99;94701.01;1598985;88;21044;-59
2021/09/23 01:00:16;;;;;;;3.95;3.65;;;;;;;7.60;79.07;94700.00;1611819;88;21113;-57
2021/09/23 01:03:04;;;;;;;4.30;3.90;;;;;;;7.56;79.32;94700.66;1602884;88;21003;-58
2021/09/23 01:05:33;;;;;;;4.00;3.70;;;;;;;7.46;79.52;94703.07;1600278;88;21522;-57
2021/09/23 01:08:01;;;;;;;6.03;4.28;;;;;;;7.37;79.85;94700.77;1599354;88;21153;-58
2021/09/23 01:10:30;;;;;;;4.20;3.90;;;;;;;7.30;80.32;94700.33;1611016;88;21090;-58
2021/09/23 01:12:57;;;;;;;5.62;5.10;;;;;;;7.31;80.43;94703.23;1601656;88;21027;-57
2021/09/23 01:15:26;;;;;;;5.70;5.17;;;;;;;7.28;80.71;94697.25;1597036;88;21067;-59
2021/09/23 01:17:54;;;;;;;5.45;4.60;;;;;;;7.33;81.01;94710.41;1599664;88;21126;-58
2021/09/23 01:20:21;;;;;;;4.40;4.03;;;;;;;7.38;81.08;94693.48;1618219;86;21032;-57
2021/09/23 01:22:51;;;;;;;4.28;3.87;;;;;;;7.44;80.62;94695.89;1622127;86;21619;-57
2021/09/23 01:25:23;;;;;;;3.50;3.30;;;;;;;7.53;80.37;94694.67;1621250;87;21544;-58
2021/09/23 01:27:51;;;;;;;7.67;4.50;;;;;;;7.54;80.33;94689.37;1616538;86;20976;-61
2021/09/23 01:30:19;;;;;;;4.83;4.40;;;;;;;7.47;80.34;94684.67;1621618;87;21123;-58
2021/09/23 01:32:48;;;;;;;4.40;4.00;;;;;;;7.47;80.64;94689.56;1619567;88;21578;-58
2021/09/23 01:35:16;;;;;;;4.28;3.87;;;;;;;7.54;80.65;94697.58;1619962;87;21106;-58
2021/09/23 01:37:43;;;;;;;3.70;3.50;;;;;;;7.59;80.35;94692.20;1618592;88;21063;-59
2021/09/23 01:40:11;;;;;;;4.58;3.65;;;;;;;7.55;80.15;94684.06;1621115;86;21554;-59
2021/09/23 01:42:41;;;;;;;4.37;4.08;;;;;;;7.48;79.94;94685.62;1617610;87;21104;-59
2021/09/23 01:45:11;;;;;;;3.55;3.35;;;;;;;7.46;80.12;94675.70;1621519;86;21031;-58
2021/09/23 01:47:43;;;;;;;3.70;3.40;;;;;;;7.51;79.97;94683.39;1620145;86;21015;-59
2021/09/23 01:50:11;;;;;;;3.77;3.47;;;;;;;7.50;79.66;94687.94;1600686;87;21103;-59
2021/09/23 01:52:39;;;;;;;6.28;4.65;;;;;;;7.44;79.64;94684.95;1603652;87;21107;-58
2021/09/23 01:55:17;;;;;;;13.65;9.30;;;;;;;7.38;79.75;94685.27;1597801;87;20987;-58
2021/09/23 01:57:45;;;;;;;16.40;10.98;;;;;;;7.35;79.74;94683.39;1597120;88;20990;-58
2021/09/23 02:00:14;;;;;;;7.22;5.55;;;;;;;7.37;80.09;94682.36;1597859;88;21052;-60
2021/09/23 02:02:43;;;;;;;4.10;3.70;;;;;;;7.37;79.84;94676.89;1619537;87;21027;-58
2021/09/23 02:05:13;;;;;;;10.30;7.33;;;;;;;7.34;79.87;94681.85;1616971;87;21724;-58
2021/09/23 02:07:40;;;;;;;4.45;3.87;;;;;;;7.30;80.02;94675.70;1620881;87;21123;-58
2021/09/23 02:10:11;;;;;;;9.85;6.55;;;;;;;7.33;80.20;94678.95;1621363;87;21563;-58
2021/09/23 02:12:38;;;;;;;6.50;3.98;;;;;;;7.38;80.39;94677.05;1621823;87;21059;-57
2021/09/23 02:15:09;;;;;;;4.20;3.35;;;;;;;7.44;80.20;94678.10;1619310;87;21151;-58
2021/09/23 02:17:37;;;;;;;3.80;3.40;;;;;;;7.44;80.15;94680.05;1621724;86;21138;-58
2021/09/23 02:20:09;;;;;;;4.10;3.70;;;;;;;7.43;80.04;94677.94;1617526;87;21083;-60
2021/09/23 02:22:39;;;;;;;3.62;3.35;;;;;;;7.39;80.08;94671.00;1615014;88;21043;-58
2021/09/23 02:25:08;;;;;;;3.22;3.02;;;;;;;7.36;80.23;94669.88;1618753;87;21074;-58
2021/09/23 02:27:34;;;;;;;3.33;3.10;;;;;;;7.33;80.44;94674.84;1599992;87;21101;-58
2021/09/23 02:30:03;;;;;;;3.72;3.33;;;;;;;7.30;80.71;94666.74;1623117;87;21034;-59
2021/09/23 02:32:30;;;;;;;4.03;3.67;;;;;;;7.27;81.02;94664.84;1627775;87;21166;-58
2021/09/23 02:34:57;;;;;;;4.67;3.47;;;;;;;7.22;81.25;94661.25;1598820;88;21058;-58
2021/09/23 02:37:24;;;;;;;3.42;3.15;;;;;;;7.22;81.58;94666.72;1626367;87;21162;-58
2021/09/23 02:39:51;;;;;;;3.80;2.98;;;;;;;7.22;81.71;94663.41;1623080;87;21038;-58
2021/09/23 02:42:20;;;;;;;3.85;3.47;;;;;;;7.24;81.65;94662.38;1625109;87;21031;-58
2021/09/23 02:44:48;;;;;;;3.67;3.37;;;;;;;7.25;81.63;94668.60;1624701;87;22655;-59
2021/09/23 02:47:16;;;;;;;3.45;3.22;;;;;;;7.27;81.68;94666.98;1626419;86;20999;-57
2021/09/23 02:49:43;;;;;;;3.70;3.40;;;;;;;7.30;81.65;94660.66;1615545;88;20983;-58
2021/09/23 02:52:10;;;;;;;3.87;3.52;;;;;;;7.35;81.55;94659.38;1603975;88;21538;-58
2021/09/23 02:54:37;;;;;;;3.95;3.65;;;;;;;7.36;81.40;94671.25;1599480;88;21065;-58
2021/09/23 02:57:04;;;;;;;4.42;3.65;;;;;;;7.36;81.38;94660.30;1597328;88;21966;-58
2021/09/23 02:59:32;;;;;;;4.17;3.30;;;;;;;7.37;81.39;94659.10;1599863;88;20998;-59
2021/09/23 03:02:00;;;;;;;3.12;2.92;;;;;;;7.36;81.35;94665.77;1602631;88;21043;-58
2021/09/23 03:04:27;;;;;;;3.35;3.05;;;;;;;7.34;81.33;94670.16;1601868;88;21007;-59
2021/09/23 03:06:55;;;;;;;3.33;3.05;;;;;;;7.34;80.97;94666.80;1599910;88;21483;-59
2021/09/23 03:09:22;;;;;;;4.70;4.10;;;;;;;7.35;80.82;94669.71;1581798;88;21210;-59
2021/09/23 03:11:51;;;;;;;5.28;4.20;;;;;;;7.35;80.94;94669.71;1597423;88;21007;-59
2021/09/23 03:14:17;;;;;;;3.75;3.33;;;;;;;7.42;80.89;94672.87;1603109;88;21031;-58
2021/09/23 03:16:46;;;;;;;4.72;3.65;;;;;;;7.50;80.74;94665.43;1596233;88;21508;-58
2021/09/23 03:19:12;;;;;;;4.15;3.75;;;;;;;7.58;80.35;94657.81;1601660;88;21566;-58
2021/09/23 03:21:39;;;;;;;3.25;2.95;;;;;;;7.63;79.93;94663.55;1602429;88;21137;-59
2021/09/23 03:24:08;;;;;;;7.37;4.33;;;;;;;7.67;79.71;94658.73;1611899;88;21479;-58
2021/09/23 03:26:35;;;;;;;31.20;12.30;;;;;;;7.67;79.60;94662.84;1616041;87;21491;-58
2021/09/23 03:29:08;;;;;;;21.37;13.28;;;;;;;7.67;79.42;94658.73;1630069;87;37704;-58
2021/09/23 03:31:36;;;;;;;9.90;6.90;;;;;;;7.70;79.25;94668.83;1629753;87;21090;-59
2021/09/23 03:34:04;;;;;;;7.30;6.60;;;;;;;7.74;79.20;94662.65;1627013;87;21542;-60
2021/09/23 03:36:31;;;;;;;7.25;5.72;;;;;;;7.79;79.00;94670.37;1628635;87;20966;-59
2021/09/23 03:38:58;;;;;;;9.23;6.17;;;;;;;7.82;78.95;94665.39;1627751;87;21093;-59
2021/09/23 03:41:25;;;;;;;4.92;4.00;;;;;;;7.83;78.67;94662.04;1628084;87;21024;-59
2021/09/23 03:43:52;;;;;;;3.65;3.35;;;;;;;7.83;78.61;94666.14;1630632;87;20978;-59
2021/09/23 03:46:21;;;;;;;3.98;3.30;;;;;;;7.84;78.55;94666.31;1628206;87;21172;-58
2021/09/23 03:48:49;;;;;;;3.50;3.20;;;;;;;7.85;78.65;94667.27;1627863;87;21052;-59
2021/09/23 03:51:18;;;;;;;4.87;3.72;;;;;;;7.85;78.82;94671.98;1562113;91;21155;-59
2021/09/23 03:53:45;;;;;;;3.27;2.98;;;;;;;7.85;79.08;94671.38;1547010;92;21269;-59
2021/09/23 03:56:12;;;;;;;3.75;3.20;;;;;;;7.90;78.97;94671.45;1570535;90;21141;-59
2021/09/23 03:58:42;;;;;;;5.08;3.70;;;;;;;7.89;79.21;94670.67;1559428;90;21024;-60
2021/09/23 04:01:12;;;;;;;3.90;3.52;;;;;;;7.91;79.29;94672.38;1567883;90;20991;-58
2021/09/23 04:03:39;;;;;;;3.25;2.95;;;;;;;7.92;79.46;94669.80;1605019;88;21038;-58
2021/09/23 04:06:06;;;;;;;3.60;3.02;;;;;;;7.94;79.60;94677.60;1608700;88;21268;-59
2021/09/23 04:08:34;;;;;;;3.10;2.90;;;;;;;7.92;79.42;94678.02;1600097;88;21895;-59
2021/09/23 04:11:01;;;;;;;3.40;3.17;;;;;;;7.87;79.36;94681.91;1620907;86;21120;-57
2021/09/23 04:13:30;;;;;;;3.55;3.25;;;;;;;7.76;79.69;94680.81;1623864;87;21546;-59
2021/09/23 04:15:58;;;;;;;3.30;3.00;;;;;;;7.72;80.22;94676.01;1620641;88;21070;-57
2021/09/23 04:18:27;;;;;;;3.17;2.98;;;;;;;7.73;80.52;94678.16;1626978;87;21657;-58
2021/09/23 04:20:54;;;;;;;3.60;3.30;;;;;;;7.77;80.49;94680.20;1624190;86;21204;-58
2021/09/23 04:23:21;;;;;;;3.87;3.52;;;;;;;7.74;80.37;94672.85;1618794;88;21135;-58
2021/09/23 04:25:49;;;;;;;3.55;3.25;;;;;;;7.72;80.63;94681.48;1620352;87;21109;-58
2021/09/23 04:28:16;;;;;;;4.12;3.72;;;;;;;7.68;80.82;94682.80;1618710;88;21011;-58
2021/09/23 04:30:42;;;;;;;5.15;3.80;;;;;;;7.62;80.98;94681.17;1620853;88;21071;-58
2021/09/23 04:33:09;;;;;;;4.85;4.33;;;;;;;7.64;81.07;94678.77;1622733;87;21097;-58
2021/09/23 04:35:37;;;;;;;8.05;5.40;;;;;;;7.68;81.07;94683.55;1627092;86;21079;-58
2021/09/23 04:38:05;;;;;;;7.62;5.20;;;;;;;7.73;81.15;94681.66;1621479;86;21217;-58
2021/09/23 04:40:33;;;;;;;5.35;4.80;;;;;;;7.80;81.00;94678.75;1624245;87;21043;-58
2021/09/23 04:43:01;;;;;;;6.67;5.03;;;;;;;7.86;80.84;94687.22;1627259;87;21161;-59
2021/09/23 04:45:28;;;;;;;5.37;4.72;;;;;;;7.89;80.75;94687.10;1626515;87;21146;-58
2021/09/23 04:47:57;;;;;;;9.20;5.40;;;;;;;7.91;80.70;94695.66;1600011;88;21135;-59
2021/09/23 04:50:24;;;;;;;9.65;6.03;;;;;;;7.90;80.84;94685.91;1604074;87;21631;-59
2021/09/23 04:52:52;;;;;;;10.75;6.65;;;;;;;7.91;80.75;94688.81;1602254;87;21545;-59
2021/09/23 04:55:19;;;;;;;10.50;7.22;;;;;;;7.94;80.79;94690.71;1605869;87;21017;-59
2021/09/23 04:57:47;;;;;;;10.08;6.45;;;;;;;8.01;80.54;94686.41;1626646;87;21195;-59
2021/09/23 05:00:17;;;;;;;8.55;6.17;;;;;;;8.05;80.18;94688.44;1627506;87;21018;-59
2021/09/23 05:02:49;;;;;;;9.40;5.42;;;;;;;8.04;79.77;94684.78;1629904;87;21109;-59
2021/09/23 05:05:16;;;;;;;7.80;5.78;;;;;;;8.01;79.38;94692.47;1624074;87;21102;-59
2021/09/23 05:07:45;;;;;;;8.30;5.83;;;;;;;7.96;79.26;94680.09;1629688;87;21066;-59
2021/09/23 05:10:13;;;;;;;9.30;6.37;;;;;;;7.96;79.38;94686.94;1624602;88;21034;-59
2021/09/23 05:12:41;;;;;;;11.12;6.97;;;;;;;7.95;79.26;94689.51;1626878;87;21121;-59
2021/09/23 05:15:15;;;;;;;7.83;5.95;;;;;;;7.90;79.74;94691.38;1626099;87;21073;-59
2021/09/23 05:17:40;;;;;;;7.58;6.00;;;;;;;7.91;79.88;94690.18;1627293;87;21046;-59
2021/09/23 05:20:09;;;;;;;8.03;4.90;;;;;;;7.92;79.97;94693.70;1626297;87;21864;-60
2021/09/23 05:22:38;;;;;;;7.12;6.28;;;;;;;7.92;80.28;94691.72;1625738;87;21058;-59
2021/09/23 05:25:06;;;;;;;6.28;5.37;;;;;;;7.97;80.12;94691.22;1628654;87;21170;-59
2021/09/23 05:27:33;;;;;;;10.78;7.67;;;;;;;7.98;80.02;94690.59;1624289;87;21748;-62
2021/09/23 05:30:00;;;;;;;8.15;6.70;;;;;;;7.98;80.05;94692.75;1633105;87;21515;-60
2021/09/23 05:32:30;;;;;;;6.95;5.62;;;;;;;7.99;80.21;94690.18;1640381;86;21533;-59
2021/09/23 05:34:58;;;;;;;5.78;5.17;;;;;;;8.01;79.90;94693.25;1639470;86;21543;-61
2021/09/23 05:37:25;;;;;;;8.65;6.25;;;;;;;8.01;79.67;94687.77;1635409;86;21141;-58
2021/09/23 05:39:53;;;;;;;7.20;6.05;;;;;;;8.03;79.51;94689.48;1633130;86;21180;-59
2021/09/23 05:42:19;;;;;;;10.13;7.90;;;;;;;8.07;79.39;94692.88;1636466;86;21105;-58
2021/09/23 05:44:47;;;;;;;10.00;7.25;;;;;;;8.09;79.40;94689.73;1627558;86;21046;-59
2021/09/23 05:47:13;;;;;;;10.25;7.10;;;;;;;8.14;79.41;94696.83;1628021;87;21039;-59
2021/09/23 05:49:41;;;;;;;11.38;7.28;;;;;;;8.14;79.03;94696.83;1612018;87;21902;-59
2021/09/23 05:52:08;;;;;;;10.30;9.08;;;;;;;8.12;79.28;94697.86;1599403;88;20977;-59
2021/09/23 05:54:35;;;;;;;8.08;6.92;;;;;;;8.10;79.43;94696.13;1610016;88;20989;-55
2021/09/23 05:57:04;;;;;;;12.70;8.25;;;;;;;8.08;79.72;94697.16;1572343;89;21047;-59
2021/09/23 05:59:33;;;;;;;13.48;10.03;;;;;;;8.04;79.98;94688.28;1568770;91;21566;-55
2021/09/23 06:02:00;;;;;;;15.10;11.55;;;;;;;8.01;80.19;94691.88;1569252;91;21837;-63
2021/09/23 06:04:28;;;;;;;17.00;11.55;;;;;;;8.05;80.35;94694.53;1570977;90;21219;-56
2021/09/23 06:06:54;;;;;;;18.52;12.60;;;;;;;8.06;80.19;94702.30;1597477;88;21052;-58
2021/09/23 06:09:23;;;;;;;14.90;11.30;;;;;;;8.08;80.27;94702.64;1602652;88;21053;-61
2021/09/23 06:11:52;;;;;;;16.17;11.53;;;;;;;8.14;80.11;94705.05;1608081;86;21460;-61
2021/09/23 06:14:19;;;;;;;14.85;11.00;;;;;;;8.17;80.08;94706.91;1606452;85;21155;-60
2021/09/23 06:16:48;;;;;;;19.50;14.55;;;;;;;8.22;80.07;94707.03;1611584;86;21043;-61
2021/09/23 06:19:17;;;;;;;13.70;9.98;;;;;;;8.29;79.67;94703.46;1611586;86;21076;-63
2021/09/23 06:21:46;;;;;;;14.55;10.70;;;;;;;8.39;79.28;94709.86;1615389;86;21046;-57
2021/09/23 06:24:13;;;;;;;9.80;8.18;;;;;;;8.48;78.88;94714.91;1568350;88;21099;-62
2021/09/23 06:26:42;;;;;;;11.60;8.40;;;;;;;8.54;78.21;94706.30;1564429;90;21601;-57
2021/09/23 06:29:10;;;;;;;9.68;6.65;;;;;;;8.61;77.87;94714.31;1565122;90;21071;-61
2021/09/23 06:31:40;;;;;;;11.88;7.90;;;;;;;8.65;77.04;94714.98;1562929;90;21573;-64
2021/09/23 06:34:07;;;;;;;8.53;7.62;;;;;;;8.69;76.49;94722.53;1622465;86;21097;-60
2021/09/23 06:36:35;;;;;;;8.28;7.47;;;;;;;8.75;76.23;94724.89;1615740;87;21041;-62
2021/09/23 06:39:03;;;;;;;11.03;7.17;;;;;;;8.84;75.73;94729.13;1608796;87;21146;-63
2021/09/23 06:41:30;;;;;;;13.50;8.23;;;;;;;8.90;75.44;94733.64;1603382;87;21083;-60
2021/09/23 06:44:05;;;;;;;24.00;9.45;;;;;;;8.96;75.30;94729.75;1610848;87;21026;-62
2021/09/23 06:46:27;;;;;;;10.88;7.65;;;;;;;9.03;74.88;94726.81;1578988;88;21066;-64
2021/09/23 06:48:59;;;;;;;14.13;7.87;;;;;;;9.09;74.56;94733.30;1609389;86;21111;-62
2021/09/23 06:51:31;;;;;;;11.03;8.88;;;;;;;9.10;74.51;94731.47;1590295;87;20938;-63
2021/09/23 06:53:58;;;;;;;9.33;7.28;;;;;;;9.13;74.20;94733.95;1584399;89;21082;-60
2021/09/23 06:56:29;;;;;;;10.50;7.58;;;;;;;9.18;73.31;94739.67;1596972;87;21092;-59
2021/09/23 06:59:00;;;;;;;9.83;7.30;;;;;;;9.16;73.43;94738.56;1596726;88;21175;-60
2021/09/23 07:01:34;;;;;;;9.10;7.62;;;;;;;9.19;73.49;94739.83;1607373;87;21628;-61
2021/09/23 07:04:19;;;;;;;33.13;9.40;;;;;;;9.24;73.66;94738.53;1588726;88;21351;-62
2021/09/23 07:06:59;;;;;;;13.50;8.08;;;;;;;9.26;73.46;94736.86;1605104;87;21585;-61
2021/09/23 07:09:29;;;;;;;10.23;7.17;;;;;;;9.25;73.49;94733.95;1565945;89;21593;-65
2021/09/23 07:12:00;;;;;;;8.35;7.08;;;;;;;9.28;73.49;94735.06;1604193;88;21117;-66
2021/09/23 07:14:28;;;;;;;9.98;7.00;;;;;;;9.28;73.49;94733.69;1603464;86;21143;-64
2021/09/23 07:16:56;;;;;;;9.85;7.53;;;;;;;9.32;73.41;94734.34;1607398;87;21179;-64
2021/09/23 07:19:25;;;;;;;14.60;7.62;;;;;;;9.37;73.02;94731.05;1609421;87;21057;-63
2021/09/23 07:21:55;;;;;;;17.37;9.08;;;;;;;9.43;72.91;94736.17;1623261;86;21035;-61
2021/09/23 07:24:23;;;;;;;12.53;7.05;;;;;;;9.51;72.54;94742.37;1610086;87;22365;-63
2021/09/23 07:26:50;;;;;;;8.00;6.25;;;;;;;9.60;71.97;94745.83;1609698;87;21124;-64
2021/09/23 07:29:19;;;;;;;11.50;8.15;;;;;;;9.66;71.45;94739.94;1604731;87;21051;-60
2021/09/23 07:31:49;;;;;;;8.83;7.00;;;;;;;9.67;71.00;94742.84;1619570;86;21608;-68
2021/09/23 07:34:16;;;;;;;11.85;6.17;;;;;;;9.70;70.72;94741.96;1610450;87;21194;-61
2021/09/23 07:36:43;;;;;;;8.20;6.10;;;;;;;9.71;70.99;94738.78;1602110;87;21604;-63
2021/09/23 07:39:10;;;;;;;19.50;6.60;;;;;;;9.76;70.65;94734.72;1602566;87;21452;-59
2021/09/23 07:41:40;;;;;;;15.68;6.45;;;;;;;9.89;70.10;94732.11;1601025;87;22257;-64
2021/09/23 07:44:09;;;;;;;7.50;5.08;;;;;;;9.98;70.30;94724.56;1582528;88;21083;-62
2021/09/23 07:46:37;;;;;;;7.92;6.47;;;;;;;10.09;69.90;94729.89;1546871;90;22233;-62
2021/09/23 07:49:05;;;;;;;7.83;5.90;;;;;;;10.16;69.42;94731.64;1562658;90;21127;-65
2021/09/23 07:51:34;;;;;;;5.70;5.08;;;;;;;10.18;69.88;94729.20;1566450;89;21647;-61
2021/09/23 07:54:02;;;;;;;6.85;5.45;;;;;;;10.22;68.94;94731.23;1556244;90;21708;-61
2021/09/23 07:56:31;;;;;;;5.10;4.60;;;;;;;10.26;68.61;94733.23;1578313;88;21588;-63
2021/09/23 07:59:00;;;;;;;5.35;4.75;;;;;;;10.27;68.24;94732.80;1605102;87;21100;-60
2021/09/23 08:01:29;;;;;;;6.67;4.87;;;;;;;10.26;67.78;94729.12;1600435;88;21071;-63
2021/09/23 08:03:56;;;;;;;8.43;6.10;;;;;;;10.22;67.80;94725.73;1612596;87;21577;-57
2021/09/23 08:06:23;;;;;;;7.47;6.03;;;;;;;10.17;68.14;94724.92;1573688;88;21167;-58
2021/09/23 08:08:51;;;;;;;10.98;6.05;;;;;;;10.14;68.36;94734.06;1610356;87;21124;-63
2021/09/23 08:11:18;;;;;;;8.08;6.40;;;;;;;10.15;68.34;94728.73;1614439;87;21057;-62
2021/09/23 08:13:48;;;;;;;10.08;7.05;;;;;;;10.13;68.34;94724.28;1616391;86;21148;-63
2021/09/23 08:16:19;;;;;;;16.73;6.90;;;;;;;10.12;68.50;94730.97;1613055;86;21132;-62
2021/09/23 08:19:04;;;;;;;11.93;6.30;;;;;;;10.16;68.55;94729.64;1604364;87;21378;-65
2021/09/23 08:21:40;;;;;;;10.70;6.60;;;;;;;10.22;67.96;94739.47;1574727;88;21614;-65
2021/09/23 08:24:09;;;;;;;10.93;6.80;;;;;;;10.21;67.98;94734.59;1584914;88;22247;-65
2021/09/23 08:26:37;;;;;;;15.23;9.90;;;;;;;10.24;68.06;94739.80;1586639;88;21096;-62
2021/09/23 08:29:04;;;;;;;7.95;6.40;;;;;;;10.27;67.76;94739.68;1606075;86;21642;-63
2021/09/23 08:31:33;;;;;;;14.93;6.10;;;;;;;10.32;67.31;94732.85;1604383;87;21556;-63
2021/09/23 08:34:00;;;;;;;11.05;5.42;;;;;;;10.32;67.52;94726.73;1606078;87;21022;-66
2021/09/23 08:36:30;;;;;;;8.15;6.20;;;;;;;10.37;67.57;94722.66;1614694;87;21171;-65
2021/09/23 08:38:58;;;;;;;9.18;4.55;;;;;;;10.48;67.69;94725.78;1575510;89;21567;-64
2021/09/23 08:41:26;;;;;;;13.70;12.25;;;;;;;10.57;66.88;94724.49;1560757;91;22167;-63
2021/09/23 08:43:59;;;;;;;20.88;9.38;;;;;;;10.62;66.85;94711.53;1566201;90;21248;-65
2021/09/23 08:46:31;;;;;;;16.80;5.45;;;;;;;10.79;67.21;94715.03;1565210;88;21271;-62
2021/09/23 08:48:57;;;;;;;13.15;5.42;;;;;;;10.99;66.18;94714.83;1547199;88;21065;-63
2021/09/23 08:51:27;;;;;;;5.17;4.50;;;;;;;11.11;65.16;94707.11;1581332;89;21620;-63
2021/09/23 08:53:54;;;;;;;11.85;4.55;;;;;;;11.23;63.38;94714.52;1552250;90;21266;-68
2021/09/23 08:56:23;;;;;;;4.28;3.87;;;;;;;11.28;63.07;94707.05;1562288;89;21075;-62
2021/09/23 08:58:53;;;;;;;9.75;5.12;;;;;;;11.35;62.43;94704.63;1555085;90;21121;-61
2021/09/23 09:01:24;;;;;;;6.72;3.58;;;;;;;11.46;62.24;94704.37;1542370;91;22320;-63
2021/09/23 09:04:04;;;;;;;10.65;4.05;;;;;;;11.56;60.90;94699.06;1583690;88;21259;-64
2021/09/23 09:06:57;;;;;;;4.37;3.77;;;;;;;11.56;60.96;94697.68;1555949;90;21079;-65
2021/09/23 09:09:33;;;;;;;5.37;3.98;;;;;;;11.59;61.16;94694.04;1556953;89;21240;-59
2021/09/23 09:12:03;;;;;;;8.03;4.35;;;;;;;11.74;61.53;94700.49;1532774;91;21109;-64
2021/09/23 09:14:34;;;;;;;4.83;3.77;;;;;;;11.92;60.76;94703.30;1611469;88;21101;-63
2021/09/23 09:17:05;;;;;;;4.72;4.20;;;;;;;12.11;59.78;94691.07;1596456;87;21082;-63
2021/09/23 09:19:55;;;;;;;7.70;4.05;;;;;;;12.30;59.23;94694.00;1612800;87;21895;-65
2021/09/23 09:22:27;;;;;;;7.55;3.22;;;;;;;12.43;57.37;94701.52;1611259;87;21029;-64
2021/09/23 09:25:12;;;;;;;4.25;3.55;;;;;;;12.49;57.15;94697.54;1612496;86;21128;-63
2021/09/23 09:27:48;;;;;;;6.35;3.40;;;;;;;12.45;55.62;94701.83;1573606;88;21091;-65
2021/09/23 09:30:23;;;;;;;5.87;3.77;;;;;;;12.36;56.63;94699.08;1526700;91;21192;-68
2021/09/23 09:32:58;;;;;;;4.70;3.98;;;;;;;12.30;56.48;94695.38;1583127;89;21124;-65
2021/09/23 09:35:30;;;;;;;15.20;12.15;;;;;;;12.32;56.39;94698.47;1609999;87;21932;-61
2021/09/23 09:38:02;;;;;;;4.78;3.90;;;;;;;12.31;56.40;94699.70;1612991;87;21130;-65
2021/09/23 09:40:34;;;;;;;5.50;3.58;;;;;;;12.20;55.93;94702.13;1605822;87;21441;-63
2021/09/23 09:43:08;;;;;;;3.75;2.95;;;;;;;12.13;56.28;94699.67;1609868;86;21089;-66
2021/09/23 09:45:37;;;;;;;3.17;2.87;;;;;;;12.04;56.87;94695.52;1585572;86;21208;-63
2021/09/23 09:48:08;;;;;;;8.80;3.50;;;;;;;12.06;57.05;94698.58;1626853;87;21176;-62
2021/09/23 09:50:38;;;;;;;3.85;3.05;;;;;;;12.18;56.74;94689.41;1574313;87;21493;-64
2021/09/23 09:53:12;;;;;;;3.98;2.92;;;;;;;12.23;55.32;94695.69;1629497;86;21479;-64
2021/09/23 09:55:45;;;;;;;11.48;3.12;;;;;;;12.22;56.05;94685.88;1628446;86;21225;-65
2021/09/23 09:58:18;;;;;;;5.28;3.27;;;;;;;12.32;56.23;94692.17;1623858;87;22435;-62
2021/09/23 10:00:45;;;;;;;5.25;2.80;;;;;;;12.52;55.63;94691.88;1548061;89;22350;-63
2021/09/23 10:03:13;;;;;;;3.15;2.90;;;;;;;12.62;56.05;94680.37;1602532;87;21613;-64
2021/09/23 10:05:42;;;;;;;6.95;4.22;;;;;;;13.01;55.35;94676.65;1608602;88;21084;-60
2021/09/23 10:08:12;;;;;;;3.20;2.90;;;;;;;13.28;55.25;94678.56;1578270;89;21130;-63
2021/09/23 10:10:39;;;;;;;8.63;3.02;;;;;;;13.75;55.27;94675.29;1612059;87;21723;-61
2021/09/23 10:13:09;;;;;;;13.85;3.50;;;;;;;14.26;53.58;94675.92;1557204;88;21486;-65
2021/09/23 10:15:38;;;;;;;5.15;2.77;;;;;;;14.86;49.97;94677.12;1609891;87;21084;-64
2021/09/23 10:18:08;;;;;;;3.47;1.90;;;;;;;15.45;48.96;94675.13;1604994;88;21018;-63
2021/09/23 10:20:39;;;;;;;2.37;1.95;;;;;;;15.97;47.66;94679.70;1592840;88;22052;-64
2021/09/23 10:23:08;;;;;;;2.85;1.82;;;;;;;16.23;45.75;94684.11;1578393;89;21038;-64
2021/09/23 10:25:36;;;;;;;2.80;2.35;;;;;;;16.16;44.21;94677.59;1597286;88;21213;-63
2021/09/23 10:28:07;;;;;;;2.10;1.90;;;;;;;15.94;45.91;94673.73;1609838;86;21065;-65
2021/09/23 10:30:41;;;;;;;3.60;1.98;;;;;;;15.81;45.80;94675.45;1597162;88;21095;-62
2021/09/23 10:33:10;;;;;;;4.92;2.33;;;;;;;15.64;44.56;94686.14;1612289;86;21113;-62
2021/09/23 10:35:37;;;;;;;2.27;2.08;;;;;;;15.31;45.95;94665.58;1603230;88;21439;-63
2021/09/23 10:38:08;;;;;;;4.10;2.17;;;;;;;15.18;45.94;94671.25;1592341;88;21159;-64
2021/09/23 10:40:37;;;;;;;2.12;1.75;;;;;;;15.33;46.31;94680.36;1596355;88;21073;-63
2021/09/23 10:43:10;;;;;;;2.95;2.50;;;;;;;15.77;45.41;94674.86;1592253;88;20990;-63
2021/09/23 10:45:39;;;;;;;4.05;2.00;;;;;;;16.21;45.65;94682.45;1591265;89;21561;-62
2021/09/23 10:48:08;;;;;;;2.05;1.82;;;;;;;16.54;44.67;94675.96;1624895;86;20995;-64
2021/09/23 10:50:38;;;;;;;2.33;1.82;;;;;;;16.72;43.63;94675.67;1564877;90;21153;-60
2021/09/23 10:53:09;;;;;;;3.35;1.52;;;;;;;16.63;44.08;94679.97;1582532;90;21613;-61
2021/09/23 10:55:39;;;;;;;3.22;1.75;;;;;;;16.66;44.12;94677.60;1581342;89;21579;-64
2021/09/23 10:58:07;;;;;;;3.08;1.92;;;;;;;16.72;43.89;94675.67;1567799;87;21047;-66
2021/09/23 11:00:37;;;;;;;3.35;2.15;;;;;;;16.65;44.08;94674.07;1614874;86;21012;-66
2021/09/23 11:03:09;;;;;;;2.60;1.90;;;;;;;16.48;43.74;94678.66;1588066;88;21100;-59
2021/09/23 11:05:37;;;;;;;4.67;2.40;;;;;;;16.05;44.19;94689.92;1601588;87;21976;-65
2021/09/23 11:08:10;;;;;;;8.33;1.80;;;;;;;15.53;45.83;94682.57;1599128;88;21558;-64
2021/09/23 11:10:41;;;;;;;6.92;2.98;;;;;;;15.19;46.64;94676.94;1613195;86;21047;-63
2021/09/23 11:13:11;;;;;;;2.62;2.40;;;;;;;14.88;47.70;94682.17;1621998;86;21120;-62
2021/09/23 11:15:41;;;;;;;8.73;2.77;;;;;;;15.14;48.33;94674.84;1602177;87;21873;-64
2021/09/23 11:18:11;;;;;;;17.37;3.27;;;;;;;15.82;47.12;94672.04;1573580;88;21134;-66
2021/09/23 11:20:44;;;;;;;11.28;3.05;;;;;;;16.27;46.13;94667.25;1605397;87;21137;-61
2021/09/23 11:23:12;;;;;;;10.68;2.58;;;;;;;16.57;46.35;94666.01;1603117;86;21288;-61
2021/09/23 11:25:48;;;;;;;13.55;3.65;;;;;;;17.03;44.15;94665.39;1570315;87;21265;-61
2021/09/23 11:28:14;;;;;;;7.28;2.90;;;;;;;17.60;43.39;94657.05;1616657;86;21129;-67
2021/09/23 11:30:42;;;;;;;5.17;2.50;;;;;;;18.04;42.51;94652.55;1601894;88;21078;-65
2021/09/23 11:33:14;;;;;;;5.33;1.92;;;;;;;18.36;41.90;94654.81;1598136;87;21077;-59
2021/09/23 11:35:45;;;;;;;3.58;2.33;;;;;;;18.73;39.82;94652.68;1604151;88;21559;-63
2021/09/23 11:38:15;;;;;;;3.87;2.30;;;;;;;19.16;39.69;94651.91;1609085;87;21112;-62
2021/09/23 11:40:43;;;;;;;34.60;3.75;;;;;;;19.92;39.09;94645.59;1622927;87;21467;-60
2021/09/23 11:43:16;;;;;;;10.63;2.52;;;;;;;20.71;36.92;94640.08;1599902;87;21127;-62
2021/09/23 11:45:46;;;;;;;3.87;1.70;;;;;;;20.89;36.26;94636.71;1606211;87;21428;-61